sensor_id;sensor_type;location;lat;lon;timestamp;pressure;altitude;pressure_sealevel;temperature;humidity
48810;BME280;40070;47.322;18.784;2023-04-07T00:01:31;1001.09;;;5.67;57.94
48810;BME280;40070;47.322;18.784;2023-04-07T00:03:32;1001.05;;;5.76;57.81
48810;BME280;40070;47.322;18.784;2023-04-07T00:05:33;1001.06;;;5.67;57.75
48810;BME280;40070;47.322;18.784;2023-04-07T00:07:34;1001.07;;;5.58;57.68
48810;BME280;40070;47.322;18.784;2023-04-07T00:09:35;1001.09;;;5.64;57.52
48810;BME280;40070;47.322;18.784;2023-04-07T00:11:36;1001.07;;;5.74;57.38
48810;BME280;40070;47.322;18.784;2023-04-07T00:13:37;1001.09;;;5.63;57.37
48810;BME280;40070;47.322;18.784;2023-04-07T00:15:38;1001.07;;;5.63;57.11
48810;BME280;40070;47.322;18.784;2023-04-07T00:17:39;1001.02;;;5.90;56.48
48810;BME280;40070;47.322;18.784;2023-04-07T00:19:40;1001.02;;;5.59;56.86
48810;BME280;40070;47.322;18.784;2023-04-07T00:21:41;1000.98;;;5.41;57.65
48810;BME280;40070;47.322;18.784;2023-04-07T00:23:42;1000.95;;;5.76;56.80
48810;BME280;40070;47.322;18.784;2023-04-07T00:25:43;1000.94;;;5.89;56.41
48810;BME280;40070;47.322;18.784;2023-04-07T00:27:43;1000.97;;;5.83;56.30
48810;BME280;40070;47.322;18.784;2023-04-07T00:29:44;1000.93;;;5.70;56.61
48810;BME280;40070;47.322;18.784;2023-04-07T00:31:45;1000.92;;;5.79;56.81
48810;BME280;40070;47.322;18.784;2023-04-07T00:33:46;1000.96;;;5.80;56.38
48810;BME280;40070;47.322;18.784;2023-04-07T00:35:47;1001.00;;;5.59;56.70
48810;BME280;40070;47.322;18.784;2023-04-07T00:37:48;1000.93;;;5.60;56.46
48810;BME280;40070;47.322;18.784;2023-04-07T00:39:49;1000.89;;;5.64;56.36
48810;BME280;40070;47.322;18.784;2023-04-07T00:41:50;1000.88;;;5.67;56.50
48810;BME280;40070;47.322;18.784;2023-04-07T00:43:51;1000.86;;;5.82;56.00
48810;BME280;40070;47.322;18.784;2023-04-07T00:45:52;1000.83;;;5.60;56.43
48810;BME280;40070;47.322;18.784;2023-04-07T00:47:54;1000.84;;;5.95;55.11
48810;BME280;40070;47.322;18.784;2023-04-07T00:49:56;1000.81;;;5.79;55.65
48810;BME280;40070;47.322;18.784;2023-04-07T00:51:57;1000.87;;;5.49;56.24
48810;BME280;40070;47.322;18.784;2023-04-07T00:53:58;1000.82;;;5.59;56.17
48810;BME280;40070;47.322;18.784;2023-04-07T00:55:59;1000.83;;;5.40;56.21
48810;BME280;40070;47.322;18.784;2023-04-07T00:58:00;1000.76;;;5.44;56.63
48810;BME280;40070;47.322;18.784;2023-04-07T01:00:01;1000.74;;;5.55;56.22
48810;BME280;40070;47.322;18.784;2023-04-07T01:02:15;1000.71;;;5.46;56.35
48810;BME280;40070;47.322;18.784;2023-04-07T01:06:39;1000.72;;;5.27;56.58
48810;BME280;40070;47.322;18.784;2023-04-07T01:08:52;1000.70;;;5.28;56.83
48810;BME280;40070;47.322;18.784;2023-04-07T01:13:32;1000.63;;;5.49;56.37
48810;BME280;40070;47.322;18.784;2023-04-07T01:15:34;1000.68;;;5.50;56.34
48810;BME280;40070;47.322;18.784;2023-04-07T01:17:36;1000.66;;;5.38;56.58
48810;BME280;40070;47.322;18.784;2023-04-07T01:19:42;1000.68;;;5.34;56.84
48810;BME280;40070;47.322;18.784;2023-04-07T01:21:46;1000.70;;;5.32;56.94
48810;BME280;40070;47.322;18.784;2023-04-07T01:26:06;1000.63;;;5.46;56.66
48810;BME280;40070;47.322;18.784;2023-04-07T01:28:18;1000.63;;;5.41;56.80
48810;BME280;40070;47.322;18.784;2023-04-07T01:30:32;1000.67;;;5.15;57.39
48810;BME280;40070;47.322;18.784;2023-04-07T01:32:34;1000.68;;;5.49;56.83
48810;BME280;40070;47.322;18.784;2023-04-07T01:34:36;1000.62;;;5.26;57.38
48810;BME280;40070;47.322;18.784;2023-04-07T01:36:38;1000.65;;;5.23;57.54
48810;BME280;40070;47.322;18.784;2023-04-07T01:38:39;1000.61;;;5.29;57.72
48810;BME280;40070;47.322;18.784;2023-04-07T01:40:40;1000.63;;;5.16;57.91
48810;BME280;40070;47.322;18.784;2023-04-07T01:42:42;1000.65;;;5.15;58.10
48810;BME280;40070;47.322;18.784;2023-04-07T01:44:44;1000.67;;;5.24;57.83
48810;BME280;40070;47.322;18.784;2023-04-07T01:46:46;1000.65;;;5.17;57.99
48810;BME280;40070;47.322;18.784;2023-04-07T01:48:47;1000.65;;;5.34;57.57
48810;BME280;40070;47.322;18.784;2023-04-07T01:50:48;1000.66;;;5.35;57.52
48810;BME280;40070;47.322;18.784;2023-04-07T01:52:50;1000.64;;;5.36;57.62
48810;BME280;40070;47.322;18.784;2023-04-07T01:54:52;1000.61;;;5.49;57.32
48810;BME280;40070;47.322;18.784;2023-04-07T01:56:53;1000.61;;;5.64;56.92
48810;BME280;40070;47.322;18.784;2023-04-07T01:58:54;1000.59;;;5.52;57.10
48810;BME280;40070;47.322;18.784;2023-04-07T02:00:55;1000.65;;;5.30;57.79
48810;BME280;40070;47.322;18.784;2023-04-07T02:02:58;1000.59;;;5.22;58.26
48810;BME280;40070;47.322;18.784;2023-04-07T02:05:03;1000.60;;;5.42;57.41
48810;BME280;40070;47.322;18.784;2023-04-07T02:07:07;1000.59;;;5.47;57.40
48810;BME280;40070;47.322;18.784;2023-04-07T02:09:09;1000.59;;;5.42;57.82
48810;BME280;40070;47.322;18.784;2023-04-07T02:11:11;1000.58;;;5.41;57.75
48810;BME280;40070;47.322;18.784;2023-04-07T02:13:14;1000.58;;;5.52;57.54
48810;BME280;40070;47.322;18.784;2023-04-07T02:15:15;1000.60;;;5.49;57.66
48810;BME280;40070;47.322;18.784;2023-04-07T02:17:16;1000.61;;;5.65;57.55
48810;BME280;40070;47.322;18.784;2023-04-07T02:19:17;1000.61;;;5.67;57.01
48810;BME280;40070;47.322;18.784;2023-04-07T02:21:18;1000.57;;;5.55;57.50
48810;BME280;40070;47.322;18.784;2023-04-07T02:23:20;1000.59;;;5.30;58.15
48810;BME280;40070;47.322;18.784;2023-04-07T02:25:24;1000.59;;;5.31;58.01
48810;BME280;40070;47.322;18.784;2023-04-07T02:27:26;1000.57;;;5.41;58.14
48810;BME280;40070;47.322;18.784;2023-04-07T02:29:26;1000.61;;;5.36;58.23
48810;BME280;40070;47.322;18.784;2023-04-07T02:31:27;1000.65;;;5.32;58.52
48810;BME280;40070;47.322;18.784;2023-04-07T02:33:28;1000.59;;;5.55;58.27
48810;BME280;40070;47.322;18.784;2023-04-07T02:35:29;1000.61;;;5.65;58.05
48810;BME280;40070;47.322;18.784;2023-04-07T02:37:30;1000.60;;;5.82;57.65
48810;BME280;40070;47.322;18.784;2023-04-07T02:39:31;1000.63;;;5.57;58.48
48810;BME280;40070;47.322;18.784;2023-04-07T02:41:32;1000.65;;;5.50;59.18
48810;BME280;40070;47.322;18.784;2023-04-07T02:43:33;1000.71;;;5.30;59.60
48810;BME280;40070;47.322;18.784;2023-04-07T02:45:34;1000.67;;;5.12;60.94
48810;BME280;40070;47.322;18.784;2023-04-07T02:47:35;1000.69;;;5.08;61.73
48810;BME280;40070;47.322;18.784;2023-04-07T02:49:36;1000.69;;;5.14;62.88
48810;BME280;40070;47.322;18.784;2023-04-07T02:51:37;1000.66;;;4.89;63.63
48810;BME280;40070;47.322;18.784;2023-04-07T02:53:38;1000.65;;;4.58;64.75
48810;BME280;40070;47.322;18.784;2023-04-07T02:55:39;1000.62;;;4.74;64.49
48810;BME280;40070;47.322;18.784;2023-04-07T02:57:40;1000.64;;;4.64;65.64
48810;BME280;40070;47.322;18.784;2023-04-07T02:59:41;1000.68;;;4.62;65.62
48810;BME280;40070;47.322;18.784;2023-04-07T03:01:41;1000.65;;;4.69;65.77
48810;BME280;40070;47.322;18.784;2023-04-07T03:03:42;1000.68;;;4.61;66.20
48810;BME280;40070;47.322;18.784;2023-04-07T03:05:43;1000.65;;;4.68;66.40
48810;BME280;40070;47.322;18.784;2023-04-07T03:07:44;1000.72;;;4.44;67.22
48810;BME280;40070;47.322;18.784;2023-04-07T03:09:45;1000.63;;;4.45;66.79
48810;BME280;40070;47.322;18.784;2023-04-07T03:11:46;1000.64;;;4.33;67.60
48810;BME280;40070;47.322;18.784;2023-04-07T03:13:47;1000.63;;;4.16;68.57
48810;BME280;40070;47.322;18.784;2023-04-07T03:15:48;1000.60;;;4.11;68.69
48810;BME280;40070;47.322;18.784;2023-04-07T03:17:49;1000.61;;;4.06;69.69
48810;BME280;40070;47.322;18.784;2023-04-07T03:19:50;1000.64;;;3.98;70.39
48810;BME280;40070;47.322;18.784;2023-04-07T03:21:51;1000.63;;;4.28;69.35
48810;BME280;40070;47.322;18.784;2023-04-07T03:23:52;1000.68;;;4.16;69.66
48810;BME280;40070;47.322;18.784;2023-04-07T03:25:52;1000.69;;;4.28;69.48
48810;BME280;40070;47.322;18.784;2023-04-07T03:27:53;1000.67;;;4.25;69.06
48810;BME280;40070;47.322;18.784;2023-04-07T03:29:54;1000.71;;;4.38;69.37
48810;BME280;40070;47.322;18.784;2023-04-07T03:31:55;1000.66;;;4.39;69.16
48810;BME280;40070;47.322;18.784;2023-04-07T03:33:56;1000.67;;;4.59;68.87
48810;BME280;40070;47.322;18.784;2023-04-07T03:35:57;1000.64;;;4.67;68.31
48810;BME280;40070;47.322;18.784;2023-04-07T03:37:58;1000.58;;;4.65;68.01
48810;BME280;40070;47.322;18.784;2023-04-07T03:39:59;1000.58;;;4.77;67.92
48810;BME280;40070;47.322;18.784;2023-04-07T03:42:00;1000.55;;;4.91;67.50
48810;BME280;40070;47.322;18.784;2023-04-07T03:44:01;1000.59;;;4.88;67.83
48810;BME280;40070;47.322;18.784;2023-04-07T03:46:02;1000.56;;;4.90;67.82
48810;BME280;40070;47.322;18.784;2023-04-07T03:48:03;1000.55;;;4.80;67.36
48810;BME280;40070;47.322;18.784;2023-04-07T03:50:04;1000.58;;;4.94;67.05
48810;BME280;40070;47.322;18.784;2023-04-07T03:52:05;1000.50;;;4.70;67.76
48810;BME280;40070;47.322;18.784;2023-04-07T03:54:06;1000.47;;;4.63;68.28
48810;BME280;40070;47.322;18.784;2023-04-07T03:56:07;1000.51;;;4.75;68.25
48810;BME280;40070;47.322;18.784;2023-04-07T03:58:08;1000.50;;;5.01;67.03
48810;BME280;40070;47.322;18.784;2023-04-07T04:00:09;1000.48;;;4.90;66.92
48810;BME280;40070;47.322;18.784;2023-04-07T04:02:10;1000.53;;;5.00;67.02
48810;BME280;40070;47.322;18.784;2023-04-07T04:04:11;1000.49;;;4.99;66.94
48810;BME280;40070;47.322;18.784;2023-04-07T04:06:12;1000.51;;;4.97;67.26
48810;BME280;40070;47.322;18.784;2023-04-07T04:08:13;1000.52;;;5.06;67.21
48810;BME280;40070;47.322;18.784;2023-04-07T04:10:14;1000.52;;;4.91;67.31
48810;BME280;40070;47.322;18.784;2023-04-07T04:12:15;1000.53;;;4.94;67.08
48810;BME280;40070;47.322;18.784;2023-04-07T04:14:15;1000.51;;;4.78;67.50
48810;BME280;40070;47.322;18.784;2023-04-07T04:16:16;1000.51;;;4.88;67.34
48810;BME280;40070;47.322;18.784;2023-04-07T04:18:17;1000.58;;;4.76;67.85
48810;BME280;40070;47.322;18.784;2023-04-07T04:20:18;1000.59;;;4.88;67.38
48810;BME280;40070;47.322;18.784;2023-04-07T04:22:19;1000.66;;;4.67;67.61
48810;BME280;40070;47.322;18.784;2023-04-07T04:24:20;1000.59;;;4.70;67.93
48810;BME280;40070;47.322;18.784;2023-04-07T04:26:21;1000.59;;;4.72;68.00
48810;BME280;40070;47.322;18.784;2023-04-07T04:28:22;1000.61;;;4.98;67.50
48810;BME280;40070;47.322;18.784;2023-04-07T04:30:23;1000.69;;;4.68;67.79
48810;BME280;40070;47.322;18.784;2023-04-07T04:32:24;1000.66;;;4.49;68.43
48810;BME280;40070;47.322;18.784;2023-04-07T04:34:25;1000.67;;;4.47;68.01
48810;BME280;40070;47.322;18.784;2023-04-07T04:36:26;1000.67;;;4.48;68.24
48810;BME280;40070;47.322;18.784;2023-04-07T04:38:27;1000.69;;;4.47;68.31
48810;BME280;40070;47.322;18.784;2023-04-07T04:40:27;1000.71;;;4.57;68.40
48810;BME280;40070;47.322;18.784;2023-04-07T04:42:28;1000.73;;;4.50;68.37
48810;BME280;40070;47.322;18.784;2023-04-07T04:44:29;1000.73;;;4.36;68.52
48810;BME280;40070;47.322;18.784;2023-04-07T04:46:30;1000.79;;;4.61;68.22
48810;BME280;40070;47.322;18.784;2023-04-07T04:48:31;1000.81;;;4.73;67.93
48810;BME280;40070;47.322;18.784;2023-04-07T04:50:32;1000.75;;;4.72;67.64
48810;BME280;40070;47.322;18.784;2023-04-07T04:52:33;1000.84;;;4.58;68.05
48810;BME280;40070;47.322;18.784;2023-04-07T04:54:34;1000.82;;;4.43;68.48
48810;BME280;40070;47.322;18.784;2023-04-07T04:56:35;1000.90;;;4.63;68.08
48810;BME280;40070;47.322;18.784;2023-04-07T04:58:36;1000.89;;;4.54;68.32
48810;BME280;40070;47.322;18.784;2023-04-07T05:00:37;1000.87;;;4.72;67.87
48810;BME280;40070;47.322;18.784;2023-04-07T05:02:38;1000.87;;;4.71;67.86
48810;BME280;40070;47.322;18.784;2023-04-07T05:04:39;1000.88;;;4.75;67.68
48810;BME280;40070;47.322;18.784;2023-04-07T05:06:40;1000.83;;;4.64;67.66
48810;BME280;40070;47.322;18.784;2023-04-07T05:08:41;1000.89;;;4.52;68.45
48810;BME280;40070;47.322;18.784;2023-04-07T05:10:42;1000.90;;;4.86;67.75
48810;BME280;40070;47.322;18.784;2023-04-07T05:12:43;1000.89;;;4.71;67.69
48810;BME280;40070;47.322;18.784;2023-04-07T05:14:44;1000.89;;;4.61;67.85
48810;BME280;40070;47.322;18.784;2023-04-07T05:16:45;1000.92;;;4.75;67.80
48810;BME280;40070;47.322;18.784;2023-04-07T05:18:46;1000.94;;;4.76;68.33
48810;BME280;40070;47.322;18.784;2023-04-07T05:20:47;1000.97;;;4.80;67.99
48810;BME280;40070;47.322;18.784;2023-04-07T05:22:48;1000.98;;;4.89;67.97
48810;BME280;40070;47.322;18.784;2023-04-07T05:24:49;1000.99;;;4.82;67.93
48810;BME280;40070;47.322;18.784;2023-04-07T05:26:50;1001.05;;;4.97;67.38
48810;BME280;40070;47.322;18.784;2023-04-07T05:28:51;1001.06;;;5.20;67.03
48810;BME280;40070;47.322;18.784;2023-04-07T05:30:52;1001.06;;;5.27;66.78
48810;BME280;40070;47.322;18.784;2023-04-07T05:32:53;1001.10;;;5.14;66.75
48810;BME280;40070;47.322;18.784;2023-04-07T05:34:54;1001.13;;;5.00;66.78
48810;BME280;40070;47.322;18.784;2023-04-07T05:36:54;1001.08;;;4.73;67.55
48810;BME280;40070;47.322;18.784;2023-04-07T05:38:55;1001.05;;;5.01;67.23
48810;BME280;40070;47.322;18.784;2023-04-07T05:40:56;1000.95;;;4.93;67.35
48810;BME280;40070;47.322;18.784;2023-04-07T05:42:57;1000.94;;;5.15;66.38
48810;BME280;40070;47.322;18.784;2023-04-07T05:44:58;1000.87;;;5.17;65.98
48810;BME280;40070;47.322;18.784;2023-04-07T05:46:59;1000.90;;;5.12;66.06
48810;BME280;40070;47.322;18.784;2023-04-07T05:49:00;1000.95;;;5.22;66.15
48810;BME280;40070;47.322;18.784;2023-04-07T05:51:01;1001.09;;;5.35;65.66
48810;BME280;40070;47.322;18.784;2023-04-07T05:53:02;1001.08;;;5.32;64.87
48810;BME280;40070;47.322;18.784;2023-04-07T05:55:03;1001.08;;;5.14;65.47
48810;BME280;40070;47.322;18.784;2023-04-07T05:57:04;1001.10;;;5.17;65.70
48810;BME280;40070;47.322;18.784;2023-04-07T05:59:05;1001.13;;;5.19;65.62
48810;BME280;40070;47.322;18.784;2023-04-07T06:01:06;1001.09;;;5.40;65.93
48810;BME280;40070;47.322;18.784;2023-04-07T06:03:07;1001.07;;;5.51;65.13
48810;BME280;40070;47.322;18.784;2023-04-07T06:05:08;1001.08;;;5.32;65.43
48810;BME280;40070;47.322;18.784;2023-04-07T06:07:09;1001.01;;;5.63;64.77
48810;BME280;40070;47.322;18.784;2023-04-07T06:09:10;1001.03;;;5.51;65.01
48810;BME280;40070;47.322;18.784;2023-04-07T06:11:11;1001.07;;;5.43;65.33
48810;BME280;40070;47.322;18.784;2023-04-07T06:13:12;1001.06;;;5.56;65.33
48810;BME280;40070;47.322;18.784;2023-04-07T06:15:13;1001.04;;;5.72;64.64
48810;BME280;40070;47.322;18.784;2023-04-07T06:17:14;1001.06;;;5.67;63.48
48810;BME280;40070;47.322;18.784;2023-04-07T06:19:14;1001.08;;;5.81;63.29
48810;BME280;40070;47.322;18.784;2023-04-07T06:21:15;1001.06;;;5.69;63.72
48810;BME280;40070;47.322;18.784;2023-04-07T06:23:16;1001.09;;;5.47;64.55
48810;BME280;40070;47.322;18.784;2023-04-07T06:25:17;1001.07;;;5.70;64.38
48810;BME280;40070;47.322;18.784;2023-04-07T06:27:18;1001.11;;;5.74;63.92
48810;BME280;40070;47.322;18.784;2023-04-07T06:29:20;1001.11;;;5.61;63.81
48810;BME280;40070;47.322;18.784;2023-04-07T06:31:21;1001.15;;;5.61;64.07
48810;BME280;40070;47.322;18.784;2023-04-07T06:33:22;1001.12;;;5.84;63.44
48810;BME280;40070;47.322;18.784;2023-04-07T06:35:23;1001.09;;;5.76;63.19
48810;BME280;40070;47.322;18.784;2023-04-07T06:37:24;1001.12;;;5.55;63.53
48810;BME280;40070;47.322;18.784;2023-04-07T06:39:25;1001.12;;;5.90;62.78
48810;BME280;40070;47.322;18.784;2023-04-07T06:41:26;1001.14;;;5.68;63.01
48810;BME280;40070;47.322;18.784;2023-04-07T06:43:27;1001.14;;;5.78;63.63
48810;BME280;40070;47.322;18.784;2023-04-07T06:45:28;1001.16;;;5.93;62.77
48810;BME280;40070;47.322;18.784;2023-04-07T06:47:29;1001.14;;;5.97;62.46
48810;BME280;40070;47.322;18.784;2023-04-07T06:49:30;1001.18;;;6.09;62.16
48810;BME280;40070;47.322;18.784;2023-04-07T06:51:31;1001.21;;;6.06;62.56
48810;BME280;40070;47.322;18.784;2023-04-07T06:53:32;1001.21;;;5.90;62.39
48810;BME280;40070;47.322;18.784;2023-04-07T06:55:34;1001.27;;;5.79;62.30
48810;BME280;40070;47.322;18.784;2023-04-07T06:57:35;1001.31;;;6.10;62.00
48810;BME280;40070;47.322;18.784;2023-04-07T06:59:36;1001.35;;;5.77;62.68
48810;BME280;40070;47.322;18.784;2023-04-07T07:01:37;1001.39;;;5.68;63.08
48810;BME280;40070;47.322;18.784;2023-04-07T07:03:38;1001.37;;;5.85;62.84
48810;BME280;40070;47.322;18.784;2023-04-07T07:05:39;1001.44;;;5.96;62.92
48810;BME280;40070;47.322;18.784;2023-04-07T07:07:41;1001.45;;;6.31;61.61
48810;BME280;40070;47.322;18.784;2023-04-07T07:09:42;1001.39;;;6.23;61.49
48810;BME280;40070;47.322;18.784;2023-04-07T07:11:43;1001.42;;;6.05;61.84
48810;BME280;40070;47.322;18.784;2023-04-07T07:13:43;1001.41;;;5.96;62.24
48810;BME280;40070;47.322;18.784;2023-04-07T07:15:44;1001.42;;;6.25;61.09
48810;BME280;40070;47.322;18.784;2023-04-07T07:17:45;1001.45;;;6.04;61.56
48810;BME280;40070;47.322;18.784;2023-04-07T07:19:46;1001.51;;;5.87;61.64
48810;BME280;40070;47.322;18.784;2023-04-07T07:21:47;1001.52;;;5.94;61.86
48810;BME280;40070;47.322;18.784;2023-04-07T07:23:48;1001.61;;;5.97;62.22
48810;BME280;40070;47.322;18.784;2023-04-07T07:25:49;1001.61;;;6.11;62.04
48810;BME280;40070;47.322;18.784;2023-04-07T07:27:50;1001.62;;;6.28;61.39
48810;BME280;40070;47.322;18.784;2023-04-07T07:29:51;1001.65;;;6.18;60.98
48810;BME280;40070;47.322;18.784;2023-04-07T07:31:52;1001.68;;;6.04;61.80
48810;BME280;40070;47.322;18.784;2023-04-07T07:33:53;1001.69;;;6.17;61.66
48810;BME280;40070;47.322;18.784;2023-04-07T07:35:53;1001.68;;;6.29;61.50
48810;BME280;40070;47.322;18.784;2023-04-07T07:37:54;1001.68;;;6.27;61.60
48810;BME280;40070;47.322;18.784;2023-04-07T07:39:55;1001.70;;;6.34;61.26
48810;BME280;40070;47.322;18.784;2023-04-07T07:41:56;1001.67;;;6.63;60.68
48810;BME280;40070;47.322;18.784;2023-04-07T07:43:57;1001.71;;;6.43;60.34
48810;BME280;40070;47.322;18.784;2023-04-07T07:45:58;1001.71;;;6.43;60.55
48810;BME280;40070;47.322;18.784;2023-04-07T07:47:59;1001.75;;;6.44;59.97
48810;BME280;40070;47.322;18.784;2023-04-07T07:50:00;1001.78;;;6.67;59.79
48810;BME280;40070;47.322;18.784;2023-04-07T07:52:01;1001.82;;;6.49;60.31
48810;BME280;40070;47.322;18.784;2023-04-07T07:54:02;1001.87;;;6.44;60.87
48810;BME280;40070;47.322;18.784;2023-04-07T07:56:03;1001.87;;;6.29;60.84
48810;BME280;40070;47.322;18.784;2023-04-07T07:58:03;1001.90;;;6.48;60.30
48810;BME280;40070;47.322;18.784;2023-04-07T08:00:05;1001.90;;;6.53;60.32
48810;BME280;40070;47.322;18.784;2023-04-07T08:02:06;1001.93;;;6.49;59.89
48810;BME280;40070;47.322;18.784;2023-04-07T08:04:07;1001.96;;;6.46;59.82
48810;BME280;40070;47.322;18.784;2023-04-07T08:06:08;1001.99;;;6.37;60.27
48810;BME280;40070;47.322;18.784;2023-04-07T08:08:09;1002.00;;;6.39;60.59
48810;BME280;40070;47.322;18.784;2023-04-07T08:10:10;1002.03;;;6.34;60.45
48810;BME280;40070;47.322;18.784;2023-04-07T08:12:11;1002.07;;;6.37;60.65
48810;BME280;40070;47.322;18.784;2023-04-07T08:14:12;1002.06;;;6.23;60.69
48810;BME280;40070;47.322;18.784;2023-04-07T08:16:12;1002.04;;;6.16;60.43
48810;BME280;40070;47.322;18.784;2023-04-07T08:18:13;1002.07;;;6.50;60.36
48810;BME280;40070;47.322;18.784;2023-04-07T08:20:14;1002.04;;;6.80;60.11
48810;BME280;40070;47.322;18.784;2023-04-07T08:22:15;1002.08;;;6.95;59.83
48810;BME280;40070;47.322;18.784;2023-04-07T08:24:17;1002.09;;;6.92;58.97
48810;BME280;40070;47.322;18.784;2023-04-07T08:26:18;1002.11;;;6.78;58.95
48810;BME280;40070;47.322;18.784;2023-04-07T08:28:19;1002.04;;;6.82;58.62
48810;BME280;40070;47.322;18.784;2023-04-07T08:30:20;1002.10;;;6.71;59.45
48810;BME280;40070;47.322;18.784;2023-04-07T08:32:21;1002.12;;;7.01;58.78
48810;BME280;40070;47.322;18.784;2023-04-07T08:34:21;1002.16;;;6.76;60.18
48810;BME280;40070;47.322;18.784;2023-04-07T08:36:23;1002.09;;;6.66;59.60
48810;BME280;40070;47.322;18.784;2023-04-07T08:38:25;1002.09;;;6.93;59.37
48810;BME280;40070;47.322;18.784;2023-04-07T08:40:26;1002.15;;;6.83;59.24
48810;BME280;40070;47.322;18.784;2023-04-07T08:42:28;1002.11;;;7.16;58.46
48810;BME280;40070;47.322;18.784;2023-04-07T08:44:29;1002.15;;;7.32;58.03
48810;BME280;40070;47.322;18.784;2023-04-07T08:46:30;1002.16;;;7.32;58.05
48810;BME280;40070;47.322;18.784;2023-04-07T08:48:32;1002.17;;;7.49;57.32
48810;BME280;40070;47.322;18.784;2023-04-07T08:50:34;1002.15;;;7.76;57.22
48810;BME280;40070;47.322;18.784;2023-04-07T08:52:49;1002.16;;;7.65;57.75
48810;BME280;40070;47.322;18.784;2023-04-07T08:54:50;1002.15;;;7.53;57.26
48810;BME280;40070;47.322;18.784;2023-04-07T08:56:51;1002.13;;;7.52;57.80
48810;BME280;40070;47.322;18.784;2023-04-07T08:58:52;1002.16;;;7.55;57.04
48810;BME280;40070;47.322;18.784;2023-04-07T09:00:54;1002.16;;;7.43;57.34
48810;BME280;40070;47.322;18.784;2023-04-07T09:02:55;1002.08;;;7.21;57.58
48810;BME280;40070;47.322;18.784;2023-04-07T09:04:56;1002.15;;;7.16;58.34
48810;BME280;40070;47.322;18.784;2023-04-07T09:06:57;1002.20;;;7.27;58.30
48810;BME280;40070;47.322;18.784;2023-04-07T09:08:58;1002.21;;;7.35;57.79
48810;BME280;40070;47.322;18.784;2023-04-07T09:10:59;1002.22;;;7.59;57.44
48810;BME280;40070;47.322;18.784;2023-04-07T09:13:00;1002.21;;;7.59;57.93
48810;BME280;40070;47.322;18.784;2023-04-07T09:15:02;1002.15;;;7.79;57.37
48810;BME280;40070;47.322;18.784;2023-04-07T09:17:02;1002.16;;;7.96;57.22
48810;BME280;40070;47.322;18.784;2023-04-07T09:19:03;1002.12;;;7.80;56.64
48810;BME280;40070;47.322;18.784;2023-04-07T09:21:04;1002.07;;;7.71;56.60
48810;BME280;40070;47.322;18.784;2023-04-07T09:23:05;1002.10;;;7.77;56.79
48810;BME280;40070;47.322;18.784;2023-04-07T09:27:19;1002.10;;;8.00;56.51
48810;BME280;40070;47.322;18.784;2023-04-07T09:29:20;1002.08;;;7.84;56.80
48810;BME280;40070;47.322;18.784;2023-04-07T09:31:22;1002.12;;;8.01;56.40
48810;BME280;40070;47.322;18.784;2023-04-07T09:33:26;1002.14;;;8.07;55.73
48810;BME280;40070;47.322;18.784;2023-04-07T09:35:27;1002.16;;;8.22;55.67
48810;BME280;40070;47.322;18.784;2023-04-07T09:37:28;1002.18;;;8.15;55.99
48810;BME280;40070;47.322;18.784;2023-04-07T09:39:29;1002.15;;;8.26;55.30
48810;BME280;40070;47.322;18.784;2023-04-07T09:41:30;1002.17;;;8.13;55.90
48810;BME280;40070;47.322;18.784;2023-04-07T09:43:31;1002.15;;;8.36;55.74
48810;BME280;40070;47.322;18.784;2023-04-07T09:45:32;1002.24;;;8.07;56.61
48810;BME280;40070;47.322;18.784;2023-04-07T09:47:33;1002.21;;;7.86;56.76
48810;BME280;40070;47.322;18.784;2023-04-07T09:49:47;1002.20;;;8.07;56.24
48810;BME280;40070;47.322;18.784;2023-04-07T09:51:59;1002.21;;;8.01;56.41
48810;BME280;40070;47.322;18.784;2023-04-07T09:54:00;1002.22;;;7.97;56.74
48810;BME280;40070;47.322;18.784;2023-04-07T09:56:01;1002.22;;;7.99;56.41
48810;BME280;40070;47.322;18.784;2023-04-07T09:58:02;1002.26;;;8.06;56.26
48810;BME280;40070;47.322;18.784;2023-04-07T10:00:04;1002.24;;;8.11;56.56
48810;BME280;40070;47.322;18.784;2023-04-07T10:02:05;1002.24;;;8.00;56.66
48810;BME280;40070;47.322;18.784;2023-04-07T10:04:06;1002.26;;;7.75;57.31
48810;BME280;40070;47.322;18.784;2023-04-07T10:06:08;1002.25;;;8.11;57.08
48810;BME280;40070;47.322;18.784;2023-04-07T10:08:09;1002.21;;;8.43;56.10
48810;BME280;40070;47.322;18.784;2023-04-07T10:10:10;1002.15;;;8.57;56.03
48810;BME280;40070;47.322;18.784;2023-04-07T10:12:10;1002.16;;;8.57;55.67
48810;BME280;40070;47.322;18.784;2023-04-07T10:14:12;1002.16;;;8.65;55.63
48810;BME280;40070;47.322;18.784;2023-04-07T10:16:13;1002.21;;;8.43;55.88
48810;BME280;40070;47.322;18.784;2023-04-07T10:18:14;1002.18;;;8.60;55.17
48810;BME280;40070;47.322;18.784;2023-04-07T10:20:16;1002.21;;;8.61;55.32
48810;BME280;40070;47.322;18.784;2023-04-07T10:22:17;1002.25;;;8.86;55.07
48810;BME280;40070;47.322;18.784;2023-04-07T10:26:32;1002.31;;;8.11;57.45
48810;BME280;40070;47.322;18.784;2023-04-07T10:28:36;1002.31;;;8.04;57.63
48810;BME280;40070;47.322;18.784;2023-04-07T10:30:38;1002.29;;;8.14;57.39
48810;BME280;40070;47.322;18.784;2023-04-07T10:32:46;1002.28;;;8.11;57.43
48810;BME280;40070;47.322;18.784;2023-04-07T10:37:12;1002.31;;;8.05;57.45
48810;BME280;40070;47.322;18.784;2023-04-07T10:41:36;1002.29;;;8.12;57.60
48810;BME280;40070;47.322;18.784;2023-04-07T10:43:38;1002.28;;;8.44;56.54
48810;BME280;40070;47.322;18.784;2023-04-07T10:45:51;1002.22;;;8.82;55.08
48810;BME280;40070;47.322;18.784;2023-04-07T10:48:08;1002.22;;;8.94;55.33
48810;BME280;40070;47.322;18.784;2023-04-07T10:50:19;1002.21;;;9.16;54.83
48810;BME280;40070;47.322;18.784;2023-04-07T10:52:21;1002.26;;;9.45;53.17
48810;BME280;40070;47.322;18.784;2023-04-07T10:54:22;1002.26;;;9.61;52.34
48810;BME280;40070;47.322;18.784;2023-04-07T10:56:23;1002.26;;;9.05;53.87
48810;BME280;40070;47.322;18.784;2023-04-07T10:58:33;1002.27;;;9.23;52.76
48810;BME280;40070;47.322;18.784;2023-04-07T11:00:34;1002.26;;;8.90;54.50
48810;BME280;40070;47.322;18.784;2023-04-07T11:02:36;1002.24;;;8.83;54.43
48810;BME280;40070;47.322;18.784;2023-04-07T11:04:37;1002.24;;;8.80;54.51
48810;BME280;40070;47.322;18.784;2023-04-07T11:06:48;1002.27;;;8.72;54.95
48810;BME280;40070;47.322;18.784;2023-04-07T11:08:49;1002.24;;;9.26;54.27